createdAt,value
2022-08-09T00:00:20.925Z,985.58
2022-08-09T00:01:20.967Z,985.62
2022-08-09T00:02:20.778Z,985.66
2022-08-09T00:04:05.506Z,985.63
2022-08-09T00:04:34.863Z,985.63
2022-08-09T00:06:17.933Z,985.62
2022-08-09T00:06:22.561Z,985.61
2022-08-09T00:07:20.406Z,985.59
2022-08-09T00:08:31.980Z,985.64
2022-08-09T00:09:21.042Z,985.59
2022-08-09T00:10:21.339Z,985.58
2022-08-09T00:11:24.843Z,985.62
2022-08-09T00:12:22.639Z,985.59
2022-08-09T00:13:19.958Z,985.58
2022-08-09T00:14:22.080Z,985.59
2022-08-09T00:15:19.815Z,985.59
2022-08-09T00:16:26.150Z,985.61
2022-08-09T00:18:04.539Z,985.58
2022-08-09T00:18:19.584Z,985.59
2022-08-09T00:19:19.512Z,985.64
2022-08-09T00:20:19.438Z,985.63
2022-08-09T00:21:19.363Z,985.60
2022-08-09T00:22:19.294Z,985.63
2022-08-09T00:23:57.030Z,985.64
2022-08-09T00:24:19.867Z,985.62
2022-08-09T00:25:23.066Z,985.64
2022-08-09T00:26:18.986Z,985.67
2022-08-09T00:27:18.923Z,985.64
2022-08-09T00:28:18.844Z,985.65
2022-08-09T00:30:09.776Z,985.63
2022-08-09T00:30:25.691Z,985.66
2022-08-09T00:31:55.782Z,985.66
2022-08-09T00:32:25.376Z,985.61
2022-08-09T00:33:18.463Z,985.61
2022-08-09T00:34:19.159Z,985.59
2022-08-09T00:35:18.320Z,985.61
2022-08-09T00:36:18.246Z,985.58
2022-08-09T00:37:18.164Z,985.58
2022-08-09T00:38:21.383Z,985.60
2022-08-09T00:40:12.188Z,985.60
2022-08-09T00:40:19.870Z,985.57
2022-08-09T00:44:08.006Z,985.60
2022-08-09T00:44:16.133Z,985.60
2022-08-09T00:44:16.911Z,985.58
2022-08-09T00:44:25.735Z,985.63
2022-08-09T00:45:17.568Z,985.64
2022-08-09T00:46:55.965Z,985.64
2022-08-09T00:47:17.417Z,985.61
2022-08-09T00:48:19.459Z,985.63
2022-08-09T00:49:17.267Z,985.59
2022-08-09T00:50:17.198Z,985.63
2022-08-09T00:51:17.120Z,985.67
2022-08-09T00:52:17.731Z,985.68
2022-08-09T00:53:16.969Z,985.70
2022-08-09T00:54:16.891Z,985.71
2022-08-09T00:56:03.326Z,985.72
2022-08-09T00:56:16.742Z,985.70
2022-08-09T00:57:24.666Z,985.69
2022-08-09T00:58:25.472Z,985.69
2022-08-09T00:59:40.302Z,985.69
2022-08-09T01:00:21.609Z,985.71
2022-08-09T01:01:16.492Z,985.67
2022-08-09T01:02:16.294Z,985.68
2022-08-09T01:03:16.219Z,985.64
2022-08-09T01:04:16.145Z,985.64
2022-08-09T01:05:21.747Z,985.64
2022-08-09T01:06:18.411Z,985.61
2022-08-09T01:07:15.922Z,985.61
2022-08-09T01:08:16.276Z,985.63
2022-08-09T01:09:15.768Z,985.61
2022-08-09T01:10:15.702Z,985.62
2022-08-09T01:11:15.621Z,985.60
2022-08-09T01:12:15.590Z,985.63
2022-08-09T01:13:16.911Z,985.61
2022-08-09T01:14:15.397Z,985.60
2022-08-09T01:15:17.659Z,985.64
2022-08-09T01:16:15.244Z,985.65
2022-08-09T01:17:16.077Z,985.66
2022-08-09T01:18:15.090Z,985.62
2022-08-09T01:19:17.177Z,985.63
2022-08-09T01:20:14.943Z,985.63
2022-08-09T01:21:14.871Z,985.64
2022-08-09T01:22:16.638Z,985.64
2022-08-09T01:24:00.890Z,985.63
2022-08-09T01:24:14.649Z,985.67
2022-08-09T01:25:14.569Z,985.65
2022-08-09T01:26:14.491Z,985.66
2022-08-09T01:27:14.412Z,985.64
2022-08-09T01:28:14.342Z,985.67
2022-08-09T01:29:15.462Z,985.68
2022-08-09T01:30:35.458Z,985.66
2022-08-09T01:31:40.890Z,985.69
2022-08-09T01:32:29.189Z,985.67
2022-08-09T01:33:13.960Z,985.69
2022-08-09T01:34:13.902Z,985.69
2022-08-09T01:35:28.434Z,985.69
2022-08-09T01:36:13.735Z,985.69
2022-08-09T01:37:13.662Z,985.72
2022-08-09T01:38:15.471Z,985.71
2022-08-09T01:39:13.543Z,985.71
2022-08-09T01:40:13.435Z,985.73
2022-08-09T01:41:13.368Z,985.72
2022-08-09T01:42:13.284Z,985.69
2022-08-09T01:43:13.211Z,985.71
2022-08-09T01:44:13.132Z,985.72
2022-08-09T01:45:13.059Z,985.72
2022-08-09T01:46:24.027Z,985.70
2022-08-09T01:47:12.907Z,985.76
2022-08-09T01:48:12.831Z,985.75
2022-08-09T01:49:14.845Z,985.73
2022-08-09T01:50:12.687Z,985.76
2022-08-09T01:51:12.599Z,985.80
2022-08-09T01:52:12.524Z,985.78
2022-08-09T01:53:20.020Z,985.82
2022-08-09T01:54:12.372Z,985.80
2022-08-09T01:55:12.296Z,985.79
2022-08-09T01:56:12.228Z,985.82
2022-08-09T01:57:12.150Z,985.81
2022-08-09T01:58:12.070Z,985.83
2022-08-09T01:59:16.089Z,985.83
2022-08-09T02:00:34.570Z,985.81
2022-08-09T02:01:11.931Z,985.82
2022-08-09T02:02:11.820Z,985.85
2022-08-09T02:03:13.843Z,985.83
2022-08-09T02:04:11.613Z,985.81
2022-08-09T02:05:15.541Z,985.81
2022-08-09T02:06:11.468Z,985.82
2022-08-09T02:07:15.593Z,985.81
2022-08-09T02:08:39.642Z,985.83
2022-08-09T02:09:11.245Z,985.84
2022-08-09T02:11:43.887Z,985.90
2022-08-09T02:12:42.613Z,985.88
2022-08-09T02:14:46.446Z,985.93
2022-08-09T02:15:49.220Z,985.93
2022-08-09T02:18:09.412Z,985.91
2022-08-09T02:18:50.123Z,985.95
2022-08-09T02:20:53.948Z,985.97
2022-08-09T02:21:55.205Z,985.95
2022-08-09T02:23:57.708Z,985.93
2022-08-09T02:24:57.610Z,985.98
2022-08-09T02:27:01.456Z,985.94
2022-08-09T02:28:04.063Z,985.92
2022-08-09T02:30:05.189Z,985.88
2022-08-09T02:31:05.824Z,985.90
2022-08-09T02:33:14.198Z,985.89
2022-08-09T02:34:13.179Z,985.88
2022-08-09T02:36:12.675Z,985.90
2022-08-09T02:37:12.589Z,985.87
2022-08-09T02:39:33.593Z,985.91
2022-08-09T02:40:18.523Z,985.91
2022-08-09T02:42:20.176Z,985.92
2022-08-09T02:43:20.086Z,985.91
2022-08-09T02:45:26.650Z,985.91
2022-08-09T02:46:23.836Z,985.92
2022-08-09T02:48:31.131Z,985.93
2022-08-09T02:49:27.592Z,985.95
2022-08-09T02:51:20.356Z,985.89
2022-08-09T02:52:20.260Z,985.90
2022-08-09T02:54:24.089Z,985.89
2022-08-09T02:55:24.009Z,985.90
2022-08-09T02:57:27.856Z,985.85
2022-08-09T02:58:36.082Z,985.84
2022-08-09T03:00:31.645Z,985.85
2022-08-09T03:01:43.341Z,985.86
2022-08-09T03:03:37.174Z,985.85
2022-08-09T03:04:35.247Z,985.85
2022-08-09T03:06:39.063Z,985.87
2022-08-09T03:07:38.980Z,985.87
2022-08-09T03:09:43.276Z,985.92
2022-08-09T03:10:43.846Z,985.89
2022-08-09T03:12:49.467Z,985.94
2022-08-09T03:13:59.618Z,985.95
2022-08-09T03:16:06.037Z,985.96
2022-08-09T03:16:50.225Z,985.94
2022-08-09T03:18:55.698Z,985.97
2022-08-09T03:20:02.742Z,985.96
2022-08-09T03:21:48.561Z,985.95
2022-08-09T03:22:46.889Z,985.95
2022-08-09T03:24:52.485Z,985.95
2022-08-09T03:25:56.979Z,985.98
2022-08-09T03:27:55.193Z,985.98
2022-08-09T03:28:55.086Z,985.97
2022-08-09T03:30:58.000Z,985.97
2022-08-09T03:32:00.474Z,985.97
2022-08-09T03:34:01.734Z,985.96
2022-08-09T03:35:01.652Z,985.97
2022-08-09T03:37:56.662Z,985.96
2022-08-09T03:38:05.398Z,986.01
2022-08-09T03:40:09.463Z,985.99
2022-08-09T03:41:09.146Z,985.98
2022-08-09T03:43:12.976Z,985.99
2022-08-09T03:44:12.898Z,985.99
2022-08-09T03:46:20.132Z,985.98
2022-08-09T03:47:16.640Z,985.97
2022-08-09T03:49:21.267Z,985.99
2022-08-09T03:50:27.871Z,986.02
2022-08-09T03:52:24.233Z,986.00
2022-08-09T03:53:24.130Z,986.05
2022-08-09T03:55:30.110Z,986.03
2022-08-09T03:56:27.893Z,986.02
2022-08-09T03:57:27.817Z,986.02
2022-08-09T03:58:27.741Z,986.01
2022-08-09T03:59:42.813Z,986.04
2022-08-09T04:00:27.639Z,986.05
2022-08-09T04:01:27.509Z,986.03
2022-08-09T04:02:30.314Z,986.07
2022-08-09T04:03:45.859Z,986.05
2022-08-09T04:04:27.284Z,986.04
2022-08-09T04:05:27.772Z,986.03
2022-08-09T04:06:27.132Z,986.05
2022-08-09T04:07:53.436Z,986.07
2022-08-09T04:09:47.655Z,986.07
2022-08-09T04:10:30.822Z,986.10
2022-08-09T04:12:35.140Z,986.11
2022-08-09T04:14:36.779Z,986.11
2022-08-09T04:16:17.824Z,986.17
2022-08-09T04:16:38.813Z,986.16
2022-08-09T04:18:32.079Z,986.20
2022-08-09T04:19:50.764Z,986.16
2022-08-09T04:21:40.106Z,986.13
2022-08-09T04:22:35.761Z,986.13
2022-08-09T04:24:39.611Z,986.16
2022-08-09T04:25:39.516Z,986.13
2022-08-09T04:27:49.159Z,986.17
2022-08-09T04:28:46.934Z,986.15
2022-08-09T04:30:47.618Z,986.17
2022-08-09T04:31:47.779Z,986.18
2022-08-09T04:33:56.543Z,986.18
2022-08-09T04:34:54.254Z,986.19
2022-08-09T04:36:55.631Z,986.24
2022-08-09T04:37:55.545Z,986.26
2022-08-09T04:39:59.394Z,986.26
2022-08-09T04:40:59.302Z,986.26
2022-08-09T04:43:03.570Z,986.27
2022-08-09T04:44:06.665Z,986.31
2022-08-09T04:46:06.935Z,986.33
2022-08-09T04:47:06.842Z,986.35
2022-08-09T04:48:59.656Z,986.35
2022-08-09T04:49:59.548Z,986.36
2022-08-09T04:52:03.376Z,986.34
2022-08-09T04:53:03.301Z,986.36
2022-08-09T04:54:03.226Z,986.31
2022-08-09T04:55:04.678Z,986.35
2022-08-09T04:56:03.071Z,986.39
2022-08-09T04:57:03.912Z,986.38
2022-08-09T04:58:09.707Z,986.41
2022-08-09T04:59:07.702Z,986.42
2022-08-09T05:00:02.843Z,986.42
2022-08-09T05:01:02.688Z,986.46
2022-08-09T05:02:03.004Z,986.43
2022-08-09T05:03:12.750Z,986.46
2022-08-09T05:04:02.970Z,986.47
2022-08-09T05:05:10.288Z,986.44
2022-08-09T05:07:06.238Z,986.40
2022-08-09T05:08:06.132Z,986.42
2022-08-09T05:09:06.055Z,986.42
2022-08-09T05:10:05.982Z,986.41
2022-08-09T05:11:07.564Z,986.42
2022-08-09T05:12:05.834Z,986.40
2022-08-09T05:13:05.752Z,986.42
2022-08-09T05:14:06.695Z,986.44
2022-08-09T05:15:11.525Z,986.42
2022-08-09T05:16:05.518Z,986.43
2022-08-09T05:17:05.450Z,986.46
2022-08-09T05:18:55.366Z,986.47
2022-08-09T05:19:05.297Z,986.45
2022-08-09T05:20:05.219Z,986.50
2022-08-09T05:21:10.031Z,986.52
2022-08-09T05:22:05.068Z,986.53
2022-08-09T05:23:54.541Z,986.52
2022-08-09T05:24:05.231Z,986.52
2022-08-09T05:25:04.834Z,986.52
2022-08-09T05:26:04.761Z,986.54
2022-08-09T05:27:04.679Z,986.53
2022-08-09T05:28:04.609Z,986.53
2022-08-09T05:29:04.540Z,986.53
2022-08-09T05:30:04.454Z,986.55
2022-08-09T05:31:09.395Z,986.55
2022-08-09T05:32:05.783Z,986.56
2022-08-09T05:33:04.228Z,986.52
2022-08-09T05:34:04.148Z,986.54
2022-08-09T05:35:04.075Z,986.57
2022-08-09T05:36:03.993Z,986.56
2022-08-09T05:37:04.908Z,986.57
2022-08-09T05:38:03.838Z,986.57
2022-08-09T05:39:03.817Z,986.60
2022-08-09T05:40:03.696Z,986.61
2022-08-09T05:41:03.616Z,986.59
2022-08-09T05:42:04.690Z,986.64
2022-08-09T05:43:03.462Z,986.61
2022-08-09T05:44:03.393Z,986.61
2022-08-09T05:45:03.322Z,986.65
2022-08-09T05:46:03.229Z,986.63
2022-08-09T05:47:05.464Z,986.66
2022-08-09T05:48:03.086Z,986.67
2022-08-09T05:49:03.004Z,986.68
2022-08-09T05:50:23.375Z,986.66
2022-08-09T05:51:42.547Z,986.69
2022-08-09T05:52:02.809Z,986.69
2022-08-09T05:53:02.712Z,986.68
2022-08-09T05:54:02.629Z,986.68
2022-08-09T05:55:03.265Z,986.71
2022-08-09T05:56:02.476Z,986.67
2022-08-09T05:57:02.396Z,986.64
2022-08-09T05:58:02.322Z,986.62
2022-08-09T05:59:02.248Z,986.64
2022-08-09T06:00:02.264Z,986.67
2022-08-09T06:01:02.093Z,986.65
2022-08-09T06:02:02.122Z,986.66
2022-08-09T06:03:02.008Z,986.68
2022-08-09T06:04:01.913Z,986.69
2022-08-09T06:05:01.795Z,986.71
2022-08-09T06:06:05.951Z,986.72
2022-08-09T06:07:01.651Z,986.72
2022-08-09T06:08:05.317Z,986.72
2022-08-09T06:09:01.492Z,986.75
2022-08-09T06:10:02.970Z,986.76
2022-08-09T06:11:01.337Z,986.76
2022-08-09T06:12:01.259Z,986.73
2022-08-09T06:13:03.114Z,986.72
2022-08-09T06:14:01.110Z,986.80
2022-08-09T06:15:02.249Z,986.74
2022-08-09T06:16:01.538Z,986.78
2022-08-09T06:17:00.882Z,986.78
2022-08-09T06:18:00.814Z,986.79
2022-08-09T06:19:00.728Z,986.79
2022-08-09T06:20:00.658Z,986.77
2022-08-09T06:21:00.576Z,986.78
2022-08-09T06:22:00.500Z,986.78
2022-08-09T06:23:00.428Z,986.78
2022-08-09T06:24:02.258Z,986.78
2022-08-09T06:25:00.278Z,986.77
2022-08-09T06:26:00.202Z,986.77
2022-08-09T06:27:00.123Z,986.79
2022-08-09T06:28:00.050Z,986.77
2022-08-09T06:29:04.748Z,986.80
2022-08-09T06:30:08.884Z,986.80
2022-08-09T06:30:59.819Z,986.81
2022-08-09T06:32:08.600Z,986.81
2022-08-09T06:33:30.452Z,986.81
2022-08-09T06:33:59.595Z,986.81
2022-08-09T06:34:59.520Z,986.84
2022-08-09T06:35:59.443Z,986.84
2022-08-09T06:37:00.119Z,986.85
2022-08-09T06:38:05.740Z,986.82
2022-08-09T06:38:59.214Z,986.84
2022-08-09T06:40:00.153Z,986.84
2022-08-09T06:40:59.070Z,986.84
2022-08-09T06:42:09.381Z,986.88
2022-08-09T06:42:58.916Z,986.90
2022-08-09T06:43:58.844Z,986.90
2022-08-09T06:44:58.768Z,986.93
2022-08-09T06:46:06.556Z,986.92
2022-08-09T06:46:58.615Z,986.93
2022-08-09T06:48:01.493Z,986.90
2022-08-09T06:49:00.166Z,986.91
2022-08-09T06:50:14.782Z,986.91
2022-08-09T06:50:58.321Z,986.91
2022-08-09T06:51:58.237Z,986.92
2022-08-09T06:52:58.167Z,986.92
2022-08-09T06:54:00.958Z,986.91
2022-08-09T06:54:58.013Z,986.91
2022-08-09T06:55:57.935Z,986.91
2022-08-09T06:56:57.860Z,986.93
2022-08-09T06:58:03.326Z,986.90
2022-08-09T07:00:49.910Z,986.91
2022-08-09T07:00:51.876Z,986.91
2022-08-09T07:00:59.685Z,986.91
2022-08-09T07:01:59.490Z,986.89
2022-08-09T07:02:57.412Z,986.92
2022-08-09T07:04:00.693Z,986.91
2022-08-09T07:04:57.256Z,986.92
2022-08-09T07:06:03.978Z,986.92
2022-08-09T07:07:00.328Z,986.91
2022-08-09T07:08:00.449Z,986.93
2022-08-09T07:08:56.961Z,986.95
2022-08-09T07:10:12.661Z,986.92
2022-08-09T07:10:56.808Z,986.91
2022-08-09T07:11:56.737Z,986.92
2022-08-09T07:12:57.122Z,986.89
2022-08-09T07:14:05.121Z,986.93
2022-08-09T07:14:56.512Z,986.88
2022-08-09T07:16:43.361Z,986.89
2022-08-09T07:16:58.287Z,986.87
2022-08-09T07:18:02.459Z,986.88
2022-08-09T07:18:56.210Z,986.90
2022-08-09T07:19:56.135Z,986.92
2022-08-09T07:20:56.062Z,986.92
2022-08-09T07:21:57.749Z,986.91
2022-08-09T07:22:56.288Z,986.94
2022-08-09T07:23:57.861Z,986.91
2022-08-09T07:24:55.762Z,986.91
2022-08-09T07:26:02.357Z,986.88
2022-08-09T07:26:55.619Z,986.90
2022-08-09T07:27:55.744Z,986.91
2022-08-09T07:29:08.558Z,986.92
2022-08-09T07:29:56.981Z,986.92
2022-08-09T07:30:55.350Z,986.93
2022-08-09T07:31:55.240Z,986.90
2022-08-09T07:32:55.162Z,986.89
2022-08-09T07:33:55.850Z,986.91
2022-08-09T07:34:55.023Z,986.91
2022-08-09T07:35:54.943Z,986.92
2022-08-09T07:36:54.874Z,986.95
2022-08-09T07:37:59.604Z,986.90
2022-08-09T07:39:00.444Z,986.95
2022-08-09T07:39:54.726Z,986.91
2022-08-09T07:41:11.677Z,986.95
2022-08-09T07:41:54.497Z,986.92
2022-08-09T07:42:54.899Z,986.95
2022-08-09T07:43:56.433Z,986.93
2022-08-09T07:44:57.296Z,986.90
2022-08-09T07:45:54.194Z,986.92
2022-08-09T07:46:54.119Z,986.92
2022-08-09T07:48:01.530Z,986.91
2022-08-09T07:48:59.401Z,986.90
2022-08-09T07:50:07.950Z,986.94
2022-08-09T07:51:09.061Z,986.93
2022-08-09T07:52:04.384Z,986.93
2022-08-09T07:52:53.673Z,986.97
2022-08-09T07:54:05.593Z,986.96
2022-08-09T07:54:53.554Z,986.95
2022-08-09T07:56:03.525Z,986.95
2022-08-09T07:56:53.376Z,986.96
2022-08-09T07:57:53.305Z,986.95
2022-08-09T07:58:53.237Z,986.93
2022-08-09T08:00:02.698Z,986.92
2022-08-09T08:00:58.640Z,986.93
2022-08-09T08:01:53.574Z,986.97
2022-08-09T08:02:52.940Z,986.96
2022-08-09T08:03:52.877Z,986.92
2022-08-09T08:04:53.874Z,986.94
2022-08-09T08:05:58.014Z,986.92
2022-08-09T08:06:55.734Z,986.90
2022-08-09T08:08:44.195Z,986.91
2022-08-09T08:09:01.507Z,986.89
2022-08-09T08:10:04.617Z,986.90
2022-08-09T08:12:07.735Z,986.89
2022-08-09T08:12:24.034Z,986.90
2022-08-09T08:12:52.193Z,986.91
2022-08-09T08:13:56.307Z,986.92
2022-08-09T08:14:52.056Z,986.94
2022-08-09T08:15:51.972Z,986.92
2022-08-09T08:17:00.644Z,986.93
2022-08-09T08:17:52.876Z,986.94
2022-08-09T08:18:51.757Z,986.96
2022-08-09T08:19:51.679Z,986.93
2022-08-09T08:20:51.605Z,986.93
2022-08-09T08:21:52.915Z,986.91
2022-08-09T08:22:51.456Z,986.94
2022-08-09T08:23:55.930Z,986.96
2022-08-09T08:24:51.309Z,986.94
2022-08-09T08:26:06.607Z,986.94
2022-08-09T08:26:56.036Z,986.94
2022-08-09T08:27:51.090Z,986.93
2022-08-09T08:28:51.017Z,986.99
2022-08-09T08:29:52.330Z,986.97
2022-08-09T08:30:50.865Z,986.98
2022-08-09T08:32:03.816Z,987.00
2022-08-09T08:32:52.547Z,987.00
2022-08-09T08:33:53.521Z,986.97
2022-08-09T08:34:51.951Z,987.00
2022-08-09T08:35:59.734Z,987.00
2022-08-09T08:36:50.423Z,986.97
2022-08-09T08:37:59.499Z,986.98
2022-08-09T08:38:50.285Z,986.99
2022-08-09T08:39:50.252Z,987.00
2022-08-09T08:40:50.136Z,987.04
2022-08-09T08:41:51.740Z,987.02
2022-08-09T08:42:49.984Z,987.02
2022-08-09T08:43:49.913Z,987.02
2022-08-09T08:44:49.838Z,987.03
2022-08-09T08:45:53.208Z,987.00
2022-08-09T08:47:02.406Z,986.99
2022-08-09T08:47:49.622Z,986.99
2022-08-09T08:48:51.085Z,986.97
2022-08-09T08:49:49.589Z,986.95
2022-08-09T08:50:51.992Z,986.98
2022-08-09T08:52:01.930Z,986.96
2022-08-09T08:52:57.550Z,986.97
2022-08-09T08:54:03.379Z,986.98
2022-08-09T08:54:49.110Z,986.99
2022-08-09T08:55:49.033Z,987.03
2022-08-09T08:56:48.958Z,987.01
2022-08-09T08:57:57.453Z,987.01
2022-08-09T08:58:48.809Z,987.00
2022-08-09T08:59:49.125Z,987.03
2022-08-09T09:00:54.262Z,987.03
2022-08-09T09:01:52.648Z,987.03
2022-08-09T09:02:52.259Z,986.99
2022-08-09T09:03:50.403Z,986.96
2022-08-09T09:04:53.172Z,987.00
2022-08-09T09:06:03.072Z,986.95
2022-08-09T09:06:48.227Z,986.98
2022-08-09T09:07:48.156Z,986.99
2022-08-09T09:08:52.624Z,986.95
2022-08-09T09:10:02.377Z,986.96
2022-08-09T09:10:47.938Z,986.96
2022-08-09T09:11:47.859Z,986.94
2022-08-09T09:12:47.791Z,986.92
2022-08-09T09:13:56.348Z,986.83
2022-08-09T09:14:47.641Z,986.90
2022-08-09T09:15:49.078Z,986.90
2022-08-09T09:16:47.494Z,986.90
2022-08-09T09:17:49.528Z,986.91
2022-08-09T09:18:54.858Z,986.90
2022-08-09T09:19:47.278Z,986.94
2022-08-09T09:20:47.211Z,986.92
2022-08-09T09:21:47.130Z,986.94
2022-08-09T09:22:47.062Z,986.93
2022-08-09T09:23:49.930Z,986.91
2022-08-09T09:24:46.910Z,986.93
2022-08-09T09:26:03.746Z,986.92
2022-08-09T09:26:46.768Z,986.94
2022-08-09T09:28:06.087Z,986.90
2022-08-09T09:29:03.313Z,986.91
2022-08-09T09:30:14.129Z,986.86
2022-08-09T09:30:47.352Z,986.89
2022-08-09T09:32:04.421Z,986.91
2022-08-09T09:32:46.329Z,986.87
2022-08-09T09:33:46.257Z,986.88
2022-08-09T09:34:46.182Z,986.87
2022-08-09T09:35:48.031Z,986.91
2022-08-09T09:36:53.155Z,986.86
2022-08-09T09:37:45.967Z,986.89
2022-08-09T09:38:45.891Z,986.91
2022-08-09T09:39:54.736Z,986.90
2022-08-09T09:40:46.353Z,986.90
2022-08-09T09:41:49.119Z,986.86
2022-08-09T09:42:46.229Z,986.89
2022-08-09T09:44:12.463Z,986.89
2022-08-09T09:44:45.454Z,986.87
2022-08-09T09:46:41.737Z,986.96
2022-08-09T09:46:50.675Z,986.95
2022-08-09T09:47:56.355Z,986.93
2022-08-09T09:48:45.167Z,986.86
2022-08-09T09:50:07.167Z,986.85
2022-08-09T09:50:49.568Z,986.87
2022-08-09T09:51:47.919Z,986.80
2022-08-09T09:52:53.608Z,986.85
2022-08-09T09:54:00.821Z,986.88
2022-08-09T09:54:48.740Z,986.87
2022-08-09T09:55:44.655Z,986.84
2022-08-09T09:58:00.499Z,986.83
2022-08-09T09:58:04.268Z,986.84
2022-08-09T09:58:44.434Z,986.83
2022-08-09T09:59:44.363Z,986.84
2022-08-09T10:00:44.287Z,986.86
2022-08-09T10:01:44.215Z,986.88
2022-08-09T10:02:44.151Z,986.86
2022-08-09T10:03:44.860Z,986.89
2022-08-09T10:04:44.000Z,986.85
2022-08-09T10:06:03.647Z,986.85
2022-08-09T10:06:47.224Z,986.85
2022-08-09T10:08:11.046Z,986.85
2022-08-09T10:08:55.144Z,986.81
2022-08-09T10:09:45.925Z,986.76
2022-08-09T10:10:43.563Z,986.85
2022-08-09T10:11:59.948Z,986.80
2022-08-09T10:12:43.557Z,986.81
2022-08-09T10:13:45.468Z,986.80
2022-08-09T10:14:48.286Z,986.77
2022-08-09T10:16:09.660Z,986.81
2022-08-09T10:16:56.998Z,986.82
2022-08-09T10:17:55.709Z,986.81
2022-08-09T10:18:42.984Z,986.83
2022-08-09T10:19:42.911Z,986.85
2022-08-09T10:20:44.830Z,986.84
2022-08-09T10:21:42.763Z,986.85
2022-08-09T10:22:42.941Z,986.81
2022-08-09T10:23:42.620Z,986.83
2022-08-09T10:24:42.548Z,986.79
2022-08-09T10:26:07.754Z,986.78
2022-08-09T10:26:42.401Z,986.76
2022-08-09T10:27:45.501Z,986.76
2022-08-09T10:28:44.109Z,986.81
2022-08-09T10:30:41.953Z,986.79
2022-08-09T10:32:21.038Z,986.78
2022-08-09T10:32:42.574Z,986.71
2022-08-09T10:34:08.173Z,986.72
2022-08-09T10:34:41.835Z,986.63
2022-08-09T10:35:41.754Z,986.65
2022-08-09T10:36:42.104Z,986.62
2022-08-09T10:37:42.097Z,986.66
2022-08-09T10:38:57.110Z,986.64
2022-08-09T10:39:49.126Z,986.61
2022-08-09T10:40:41.407Z,986.67
2022-08-09T10:41:42.179Z,986.64
2022-08-09T10:42:41.244Z,986.64
2022-08-09T10:43:53.872Z,986.57
2022-08-09T10:44:41.100Z,986.58
2022-08-09T10:45:49.324Z,986.61
2022-08-09T10:46:54.503Z,986.59
2022-08-09T10:48:16.387Z,986.61
2022-08-09T10:48:40.810Z,986.55
2022-08-09T10:49:50.150Z,986.55
2022-08-09T10:50:40.668Z,986.52
2022-08-09T10:51:41.297Z,986.52
2022-08-09T10:52:42.987Z,986.54
2022-08-09T10:53:46.914Z,986.49
2022-08-09T10:54:40.379Z,986.53
2022-08-09T10:55:58.795Z,986.52
2022-08-09T10:56:40.235Z,986.47
2022-08-09T10:57:41.840Z,986.43
2022-08-09T10:58:40.094Z,986.45
2022-08-09T10:59:53.743Z,986.43
2022-08-09T11:00:41.807Z,986.41
2022-08-09T11:03:15.622Z,986.39
2022-08-09T11:03:15.934Z,986.38
2022-08-09T11:03:49.627Z,986.41
2022-08-09T11:04:55.576Z,986.41
2022-08-09T11:05:39.629Z,986.40
2022-08-09T11:06:46.735Z,986.38
2022-08-09T11:08:47.614Z,986.43
2022-08-09T11:09:47.760Z,986.42
2022-08-09T11:11:51.876Z,986.38
2022-08-09T11:12:47.149Z,986.40
2022-08-09T11:14:50.985Z,986.39
2022-08-09T11:16:06.429Z,986.36
2022-08-09T11:17:43.700Z,986.39
2022-08-09T11:18:45.048Z,986.41
2022-08-09T11:20:18.000Z,986.43
2022-08-09T11:20:43.466Z,986.45
2022-08-09T11:21:43.392Z,986.34
2022-08-09T11:22:43.322Z,986.41
2022-08-09T11:23:45.275Z,986.38
2022-08-09T11:24:43.179Z,986.40
2022-08-09T11:25:46.226Z,986.33
2022-08-09T11:26:47.254Z,986.31
2022-08-09T11:28:02.963Z,986.36
2022-08-09T11:28:56.073Z,986.33
2022-08-09T11:30:04.200Z,986.33
2022-08-09T11:30:45.916Z,986.30
2022-08-09T11:31:43.480Z,986.33
2022-08-09T11:32:42.604Z,986.33
2022-08-09T11:33:42.538Z,986.35
2022-08-09T11:34:42.853Z,986.31
2022-08-09T11:35:49.226Z,986.30
2022-08-09T11:36:42.320Z,986.27
2022-08-09T11:37:43.254Z,986.23
2022-08-09T11:38:42.186Z,986.27
2022-08-09T11:39:42.151Z,986.31
2022-08-09T11:40:42.038Z,986.29
2022-08-09T11:41:41.966Z,986.27
2022-08-09T11:42:41.897Z,986.25
2022-08-09T11:43:41.825Z,986.29
2022-08-09T11:44:41.752Z,986.27
2022-08-09T11:45:43.083Z,986.23
2022-08-09T11:46:41.615Z,986.29
2022-08-09T11:47:41.539Z,986.24
2022-08-09T11:48:41.471Z,986.23
2022-08-09T11:49:42.862Z,986.18
2022-08-09T11:50:53.186Z,986.25
2022-08-09T11:53:00.641Z,986.26
2022-08-09T11:53:02.906Z,986.26
2022-08-09T11:54:01.435Z,986.22
2022-08-09T11:54:41.045Z,986.22
2022-08-09T11:55:52.243Z,986.23
2022-08-09T11:56:47.517Z,986.28
2022-08-09T11:57:56.831Z,986.27
2022-08-09T11:58:40.761Z,986.24
2022-08-09T11:59:40.692Z,986.25
2022-08-09T12:00:40.617Z,986.24
2022-08-09T12:02:18.010Z,986.25
2022-08-09T12:02:40.808Z,986.20
2022-08-09T12:03:55.182Z,986.18
2022-08-09T12:04:40.390Z,986.18
2022-08-09T12:05:42.272Z,986.20
2022-08-09T12:06:40.194Z,986.23
2022-08-09T12:07:42.336Z,986.20
2022-08-09T12:08:40.057Z,986.21
2022-08-09T12:09:39.981Z,986.24
2022-08-09T12:10:40.253Z,986.24
2022-08-09T12:12:02.047Z,986.19
2022-08-09T12:12:39.932Z,986.18
2022-08-09T12:14:10.791Z,986.18
2022-08-09T12:14:58.966Z,986.22
2022-08-09T12:15:50.067Z,986.20
2022-08-09T12:16:40.035Z,986.19
2022-08-09T12:17:44.477Z,986.20
2022-08-09T12:18:39.353Z,986.22
2022-08-09T12:19:40.077Z,986.18
2022-08-09T12:20:39.215Z,986.15
2022-08-09T12:21:48.270Z,986.14
2022-08-09T12:22:39.075Z,986.16
2022-08-09T12:23:58.141Z,986.18
2022-08-09T12:24:39.040Z,986.15
2022-08-09T12:25:38.863Z,986.11
2022-08-09T12:26:38.794Z,986.10
2022-08-09T12:28:59.794Z,986.11
2022-08-09T12:29:13.079Z,986.09
2022-08-09T12:29:44.570Z,986.06
2022-08-09T12:30:39.421Z,986.11
2022-08-09T12:32:01.818Z,986.09
2022-08-09T12:32:40.658Z,986.08
2022-08-09T12:33:59.183Z,986.09
2022-08-09T12:34:38.232Z,986.08
2022-08-09T12:35:40.912Z,986.05
2022-08-09T12:36:38.092Z,986.08
2022-08-09T12:37:50.164Z,986.06
2022-08-09T12:38:38.775Z,986.03
2022-08-09T12:39:38.113Z,986.00
2022-08-09T12:40:37.824Z,986.04
2022-08-09T12:41:40.209Z,985.99
2022-08-09T12:42:37.680Z,986.00
2022-08-09T12:44:05.674Z,985.96
2022-08-09T12:44:37.630Z,985.97
2022-08-09T12:45:38.478Z,985.98
2022-08-09T12:46:37.402Z,985.98
2022-08-09T12:47:43.547Z,986.00
2022-08-09T12:48:38.507Z,985.99
2022-08-09T12:49:37.197Z,985.97
2022-08-09T12:50:37.263Z,985.93
2022-08-09T12:52:00.582Z,985.95
2022-08-09T12:52:42.647Z,985.85
2022-08-09T12:53:38.694Z,985.95
2022-08-09T12:54:36.858Z,985.97
2022-08-09T12:56:14.625Z,985.97
2022-08-09T12:56:43.347Z,985.94
2022-08-09T12:57:39.350Z,986.00
2022-08-09T12:58:42.560Z,985.98
2022-08-09T12:59:57.712Z,986.03
2022-08-09T13:00:36.448Z,986.06
2022-08-09T13:01:38.152Z,986.08
2022-08-09T13:02:36.312Z,986.02
2022-08-09T13:03:56.785Z,986.03
2022-08-09T13:04:38.622Z,986.10
2022-08-09T13:05:52.460Z,986.08
2022-08-09T13:06:36.058Z,986.09
2022-08-09T13:07:51.413Z,986.05
2022-08-09T13:08:39.978Z,986.06
2022-08-09T13:09:38.309Z,986.03
2022-08-09T13:10:35.797Z,985.98
2022-08-09T13:11:39.359Z,986.01
2022-08-09T13:12:40.072Z,985.89
2022-08-09T13:14:11.914Z,986.00
2022-08-09T13:14:43.785Z,986.05
2022-08-09T13:15:35.482Z,985.94
2022-08-09T13:16:35.415Z,986.07
2022-08-09T13:18:03.264Z,985.99
2022-08-09T13:18:35.310Z,985.99
2022-08-09T13:20:10.101Z,985.94
2022-08-09T13:20:37.265Z,985.95
2022-08-09T13:22:36.094Z,985.97
2022-08-09T13:23:05.285Z,985.84
2022-08-09T13:24:11.826Z,985.89
2022-08-09T13:24:42.656Z,985.89
2022-08-09T13:25:37.443Z,985.85
2022-08-09T13:26:37.265Z,985.89